sensor_id;sensor_type;location;lat;lon;timestamp;P1;durP1;ratioP1;P2;durP2;ratioP2
44987;SDS011;35735;52.226;21.254;2023-05-07T00:02:46;4.60;;;2.80;;
44987;SDS011;35735;52.226;21.254;2023-05-07T00:07:47;3.28;;;2.78;;
44987;SDS011;35735;52.226;21.254;2023-05-07T00:12:47;3.80;;;2.95;;
44987;SDS011;35735;52.226;21.254;2023-05-07T00:17:48;4.53;;;2.75;;
44987;SDS011;35735;52.226;21.254;2023-05-07T00:22:48;3.75;;;2.70;;
44987;SDS011;35735;52.226;21.254;2023-05-07T00:27:49;4.90;;;3.47;;
44987;SDS011;35735;52.226;21.254;2023-05-07T00:32:50;6.28;;;3.28;;
44987;SDS011;35735;52.226;21.254;2023-05-07T00:37:50;4.03;;;2.67;;
44987;SDS011;35735;52.226;21.254;2023-05-07T00:42:51;6.22;;;2.87;;
44987;SDS011;35735;52.226;21.254;2023-05-07T00:47:53;3.22;;;2.42;;
44987;SDS011;35735;52.226;21.254;2023-05-07T00:52:55;3.78;;;2.33;;
44987;SDS011;35735;52.226;21.254;2023-05-07T00:57:56;3.78;;;3.05;;
44987;SDS011;35735;52.226;21.254;2023-05-07T01:02:57;5.72;;;3.17;;
44987;SDS011;35735;52.226;21.254;2023-05-07T01:07:58;4.62;;;2.58;;
44987;SDS011;35735;52.226;21.254;2023-05-07T01:12:59;4.45;;;2.90;;
44987;SDS011;35735;52.226;21.254;2023-05-07T01:18:01;3.00;;;2.70;;
44987;SDS011;35735;52.226;21.254;2023-05-07T01:23:01;4.53;;;2.72;;
44987;SDS011;35735;52.226;21.254;2023-05-07T01:28:03;5.05;;;2.83;;
44987;SDS011;35735;52.226;21.254;2023-05-07T01:33:06;3.87;;;2.60;;
44987;SDS011;35735;52.226;21.254;2023-05-07T01:38:11;4.30;;;2.60;;
44987;SDS011;35735;52.226;21.254;2023-05-07T01:43:12;5.32;;;2.83;;
44987;SDS011;35735;52.226;21.254;2023-05-07T01:48:13;3.65;;;2.72;;
44987;SDS011;35735;52.226;21.254;2023-05-07T01:53:14;4.35;;;3.03;;
44987;SDS011;35735;52.226;21.254;2023-05-07T01:58:15;3.00;;;2.45;;
44987;SDS011;35735;52.226;21.254;2023-05-07T02:03:15;3.10;;;2.70;;
44987;SDS011;35735;52.226;21.254;2023-05-07T02:08:16;4.00;;;2.40;;
44987;SDS011;35735;52.226;21.254;2023-05-07T02:13:16;3.25;;;2.30;;
44987;SDS011;35735;52.226;21.254;2023-05-07T02:18:17;4.05;;;2.37;;
44987;SDS011;35735;52.226;21.254;2023-05-07T02:23:17;3.05;;;2.37;;
44987;SDS011;35735;52.226;21.254;2023-05-07T02:28:18;4.18;;;2.80;;
44987;SDS011;35735;52.226;21.254;2023-05-07T02:33:18;4.68;;;2.40;;
44987;SDS011;35735;52.226;21.254;2023-05-07T02:38:19;3.15;;;2.55;;
44987;SDS011;35735;52.226;21.254;2023-05-07T02:43:19;3.00;;;2.37;;
44987;SDS011;35735;52.226;21.254;2023-05-07T02:48:20;3.35;;;2.55;;
44987;SDS011;35735;52.226;21.254;2023-05-07T02:53:20;2.65;;;2.20;;
44987;SDS011;35735;52.226;21.254;2023-05-07T02:58:21;2.60;;;2.20;;
44987;SDS011;35735;52.226;21.254;2023-05-07T03:03:22;4.40;;;2.58;;
44987;SDS011;35735;52.226;21.254;2023-05-07T03:08:22;2.92;;;2.20;;
44987;SDS011;35735;52.226;21.254;2023-05-07T03:13:24;6.35;;;2.58;;
44987;SDS011;35735;52.226;21.254;2023-05-07T03:18:24;2.35;;;1.87;;
44987;SDS011;35735;52.226;21.254;2023-05-07T03:23:25;2.62;;;1.70;;
44987;SDS011;35735;52.226;21.254;2023-05-07T03:28:26;3.53;;;2.25;;
44987;SDS011;35735;52.226;21.254;2023-05-07T03:33:26;2.47;;;2.00;;
44987;SDS011;35735;52.226;21.254;2023-05-07T03:38:27;2.35;;;2.15;;
44987;SDS011;35735;52.226;21.254;2023-05-07T03:43:27;3.35;;;2.20;;
44987;SDS011;35735;52.226;21.254;2023-05-07T03:48:28;3.53;;;2.10;;
44987;SDS011;35735;52.226;21.254;2023-05-07T03:53:28;3.55;;;2.25;;
44987;SDS011;35735;52.226;21.254;2023-05-07T03:58:29;3.62;;;2.20;;
44987;SDS011;35735;52.226;21.254;2023-05-07T04:03:29;2.62;;;2.15;;
44987;SDS011;35735;52.226;21.254;2023-05-07T04:08:30;2.30;;;2.10;;
44987;SDS011;35735;52.226;21.254;2023-05-07T04:13:30;3.67;;;2.25;;
44987;SDS011;35735;52.226;21.254;2023-05-07T04:18:31;3.47;;;2.12;;
44987;SDS011;35735;52.226;21.254;2023-05-07T04:23:32;3.55;;;2.25;;
44987;SDS011;35735;52.226;21.254;2023-05-07T04:28:33;3.20;;;2.33;;
44987;SDS011;35735;52.226;21.254;2023-05-07T04:33:35;2.08;;;1.73;;
44987;SDS011;35735;52.226;21.254;2023-05-07T04:38:35;3.10;;;2.45;;
44987;SDS011;35735;52.226;21.254;2023-05-07T04:43:36;2.15;;;1.95;;
44987;SDS011;35735;52.226;21.254;2023-05-07T04:48:36;5.43;;;2.10;;
44987;SDS011;35735;52.226;21.254;2023-05-07T04:53:37;2.62;;;2.12;;
44987;SDS011;35735;52.226;21.254;2023-05-07T04:58:38;2.08;;;1.87;;
44987;SDS011;35735;52.226;21.254;2023-05-07T05:03:38;4.05;;;2.00;;
44987;SDS011;35735;52.226;21.254;2023-05-07T05:08:39;2.83;;;2.00;;
44987;SDS011;35735;52.226;21.254;2023-05-07T05:13:39;2.90;;;1.90;;
44987;SDS011;35735;52.226;21.254;2023-05-07T05:18:40;1.73;;;1.62;;
44987;SDS011;35735;52.226;21.254;2023-05-07T05:23:40;3.03;;;2.00;;
44987;SDS011;35735;52.226;21.254;2023-05-07T05:28:41;3.03;;;1.75;;
44987;SDS011;35735;52.226;21.254;2023-05-07T05:33:41;2.80;;;1.77;;
44987;SDS011;35735;52.226;21.254;2023-05-07T05:38:42;2.00;;;1.80;;
44987;SDS011;35735;52.226;21.254;2023-05-07T05:43:42;2.75;;;1.98;;
44987;SDS011;35735;52.226;21.254;2023-05-07T05:48:43;1.87;;;1.70;;
44987;SDS011;35735;52.226;21.254;2023-05-07T05:53:43;3.22;;;1.62;;
44987;SDS011;35735;52.226;21.254;2023-05-07T05:58:44;1.90;;;1.70;;
44987;SDS011;35735;52.226;21.254;2023-05-07T06:03:45;3.05;;;1.50;;
44987;SDS011;35735;52.226;21.254;2023-05-07T06:08:45;2.65;;;1.55;;
44987;SDS011;35735;52.226;21.254;2023-05-07T06:13:46;2.45;;;1.73;;
44987;SDS011;35735;52.226;21.254;2023-05-07T06:18:46;1.90;;;1.65;;
44987;SDS011;35735;52.226;21.254;2023-05-07T06:23:47;2.00;;;1.80;;
44987;SDS011;35735;52.226;21.254;2023-05-07T06:28:47;3.45;;;1.80;;
44987;SDS011;35735;52.226;21.254;2023-05-07T06:33:48;1.77;;;1.35;;
44987;SDS011;35735;52.226;21.254;2023-05-07T06:38:49;3.35;;;1.62;;
44987;SDS011;35735;52.226;21.254;2023-05-07T06:43:50;2.10;;;1.65;;
44987;SDS011;35735;52.226;21.254;2023-05-07T06:48:50;1.80;;;1.60;;
44987;SDS011;35735;52.226;21.254;2023-05-07T06:53:51;5.72;;;2.22;;
44987;SDS011;35735;52.226;21.254;2023-05-07T06:58:51;3.30;;;2.20;;
44987;SDS011;35735;52.226;21.254;2023-05-07T07:03:52;1.90;;;1.70;;
44987;SDS011;35735;52.226;21.254;2023-05-07T07:08:52;2.58;;;1.90;;
44987;SDS011;35735;52.226;21.254;2023-05-07T07:13:53;2.17;;;1.70;;
44987;SDS011;35735;52.226;21.254;2023-05-07T07:18:54;2.05;;;1.77;;
44987;SDS011;35735;52.226;21.254;2023-05-07T07:23:54;2.22;;;2.00;;
44987;SDS011;35735;52.226;21.254;2023-05-07T07:28:55;3.28;;;1.90;;
44987;SDS011;35735;52.226;21.254;2023-05-07T07:33:55;2.87;;;2.10;;
44987;SDS011;35735;52.226;21.254;2023-05-07T07:38:56;2.47;;;2.03;;
44987;SDS011;35735;52.226;21.254;2023-05-07T07:43:56;2.25;;;1.77;;
44987;SDS011;35735;52.226;21.254;2023-05-07T07:48:57;2.62;;;1.98;;
44987;SDS011;35735;52.226;21.254;2023-05-07T07:53:57;2.65;;;1.90;;
44987;SDS011;35735;52.226;21.254;2023-05-07T07:58:58;4.78;;;1.95;;
44987;SDS011;35735;52.226;21.254;2023-05-07T08:03:58;3.72;;;3.03;;
44987;SDS011;35735;52.226;21.254;2023-05-07T08:09:00;10.88;;;7.85;;
44987;SDS011;35735;52.226;21.254;2023-05-07T08:14:01;5.70;;;2.25;;
44987;SDS011;35735;52.226;21.254;2023-05-07T08:19:01;6.03;;;2.90;;
44987;SDS011;35735;52.226;21.254;2023-05-07T08:24:02;2.78;;;1.80;;
44987;SDS011;35735;52.226;21.254;2023-05-07T08:29:02;4.20;;;1.87;;
44987;SDS011;35735;52.226;21.254;2023-05-07T08:34:03;3.95;;;2.12;;
44987;SDS011;35735;52.226;21.254;2023-05-07T08:39:04;2.30;;;1.80;;
44987;SDS011;35735;52.226;21.254;2023-05-07T08:44:05;2.85;;;1.80;;
44987;SDS011;35735;52.226;21.254;2023-05-07T08:49:12;2.17;;;1.60;;
44987;SDS011;35735;52.226;21.254;2023-05-07T08:54:15;3.85;;;1.70;;
44987;SDS011;35735;52.226;21.254;2023-05-07T08:59:16;2.05;;;1.60;;
44987;SDS011;35735;52.226;21.254;2023-05-07T09:04:17;3.25;;;1.70;;
44987;SDS011;35735;52.226;21.254;2023-05-07T09:09:17;6.32;;;1.87;;
44987;SDS011;35735;52.226;21.254;2023-05-07T09:14:18;2.22;;;1.65;;
44987;SDS011;35735;52.226;21.254;2023-05-07T09:19:22;2.10;;;1.75;;
44987;SDS011;35735;52.226;21.254;2023-05-07T09:24:24;2.72;;;1.55;;
44987;SDS011;35735;52.226;21.254;2023-05-07T09:29:25;2.40;;;1.85;;
44987;SDS011;35735;52.226;21.254;2023-05-07T09:34:25;2.00;;;1.80;;
44987;SDS011;35735;52.226;21.254;2023-05-07T09:39:26;2.45;;;1.70;;
44987;SDS011;35735;52.226;21.254;2023-05-07T09:44:26;4.45;;;2.10;;
44987;SDS011;35735;52.226;21.254;2023-05-07T09:49:29;5.65;;;2.90;;
44987;SDS011;35735;52.226;21.254;2023-05-07T09:54:30;2.20;;;1.58;;
44987;SDS011;35735;52.226;21.254;2023-05-07T09:59:31;5.18;;;1.67;;
44987;SDS011;35735;52.226;21.254;2023-05-07T10:04:32;4.00;;;1.55;;
44987;SDS011;35735;52.226;21.254;2023-05-07T10:09:34;2.95;;;1.90;;
44987;SDS011;35735;52.226;21.254;2023-05-07T10:14:36;4.82;;;2.03;;
44987;SDS011;35735;52.226;21.254;2023-05-07T10:19:37;2.60;;;1.60;;
44987;SDS011;35735;52.226;21.254;2023-05-07T10:24:38;2.65;;;1.60;;
44987;SDS011;35735;52.226;21.254;2023-05-07T10:29:45;2.42;;;1.48;;
44987;SDS011;35735;52.226;21.254;2023-05-07T10:35:09;5.00;;;1.70;;
44987;SDS011;35735;52.226;21.254;2023-05-07T10:40:18;3.03;;;1.50;;
44987;SDS011;35735;52.226;21.254;2023-05-07T10:45:21;3.05;;;1.77;;
44987;SDS011;35735;52.226;21.254;2023-05-07T10:50:22;2.17;;;1.50;;
44987;SDS011;35735;52.226;21.254;2023-05-07T10:55:23;6.43;;;1.80;;
44987;SDS011;35735;52.226;21.254;2023-05-07T11:05:24;9.20;;;3.03;;
44987;SDS011;35735;52.226;21.254;2023-05-07T11:15:56;3.83;;;1.62;;
44987;SDS011;35735;52.226;21.254;2023-05-07T11:20:57;2.03;;;1.45;;
44987;SDS011;35735;52.226;21.254;2023-05-07T11:26:02;5.07;;;1.42;;
44987;SDS011;35735;52.226;21.254;2023-05-07T11:31:04;1.70;;;1.55;;
44987;SDS011;35735;52.226;21.254;2023-05-07T11:36:05;2.22;;;1.60;;
44987;SDS011;35735;52.226;21.254;2023-05-07T11:41:08;13.48;;;5.65;;
44987;SDS011;35735;52.226;21.254;2023-05-07T11:46:09;10.98;;;2.45;;
44987;SDS011;35735;52.226;21.254;2023-05-07T11:51:11;3.75;;;1.80;;
44987;SDS011;35735;52.226;21.254;2023-05-07T11:56:13;3.42;;;1.60;;
44987;SDS011;35735;52.226;21.254;2023-05-07T12:01:15;2.30;;;1.83;;
44987;SDS011;35735;52.226;21.254;2023-05-07T12:06:16;1.90;;;1.70;;
44987;SDS011;35735;52.226;21.254;2023-05-07T12:11:22;2.72;;;1.50;;
44987;SDS011;35735;52.226;21.254;2023-05-07T12:16:24;2.17;;;1.40;;
44987;SDS011;35735;52.226;21.254;2023-05-07T12:21:25;3.15;;;1.48;;
44987;SDS011;35735;52.226;21.254;2023-05-07T12:26:25;2.65;;;1.92;;
44987;SDS011;35735;52.226;21.254;2023-05-07T12:31:26;1.92;;;1.42;;
44987;SDS011;35735;52.226;21.254;2023-05-07T12:36:35;2.12;;;1.40;;
44987;SDS011;35735;52.226;21.254;2023-05-07T12:41:53;2.22;;;1.55;;
44987;SDS011;35735;52.226;21.254;2023-05-07T12:46:54;5.75;;;4.05;;
44987;SDS011;35735;52.226;21.254;2023-05-07T12:51:55;2.17;;;1.60;;
44987;SDS011;35735;52.226;21.254;2023-05-07T13:02:04;3.55;;;1.33;;
44987;SDS011;35735;52.226;21.254;2023-05-07T13:07:05;2.15;;;1.52;;
44987;SDS011;35735;52.226;21.254;2023-05-07T13:12:05;1.92;;;1.33;;
44987;SDS011;35735;52.226;21.254;2023-05-07T13:17:06;3.53;;;1.62;;
44987;SDS011;35735;52.226;21.254;2023-05-07T13:22:06;2.47;;;1.40;;
44987;SDS011;35735;52.226;21.254;2023-05-07T13:27:07;2.80;;;1.30;;
44987;SDS011;35735;52.226;21.254;2023-05-07T13:32:08;1.95;;;1.50;;
44987;SDS011;35735;52.226;21.254;2023-05-07T13:37:08;2.72;;;1.45;;
44987;SDS011;35735;52.226;21.254;2023-05-07T13:42:09;2.35;;;1.55;;
44987;SDS011;35735;52.226;21.254;2023-05-07T13:47:10;3.37;;;1.30;;
44987;SDS011;35735;52.226;21.254;2023-05-07T13:52:10;6.45;;;4.12;;
44987;SDS011;35735;52.226;21.254;2023-05-07T13:57:11;6.00;;;3.10;;
44987;SDS011;35735;52.226;21.254;2023-05-07T14:02:11;3.45;;;2.35;;
44987;SDS011;35735;52.226;21.254;2023-05-07T14:07:12;4.12;;;2.20;;
44987;SDS011;35735;52.226;21.254;2023-05-07T14:12:12;3.10;;;2.17;;
44987;SDS011;35735;52.226;21.254;2023-05-07T14:17:13;2.10;;;1.48;;
44987;SDS011;35735;52.226;21.254;2023-05-07T14:22:14;3.20;;;1.42;;
44987;SDS011;35735;52.226;21.254;2023-05-07T14:27:14;3.55;;;2.17;;
44987;SDS011;35735;52.226;21.254;2023-05-07T14:32:15;1.90;;;1.48;;
44987;SDS011;35735;52.226;21.254;2023-05-07T14:37:16;2.55;;;1.60;;
44987;SDS011;35735;52.226;21.254;2023-05-07T14:42:16;1.90;;;1.52;;
44987;SDS011;35735;52.226;21.254;2023-05-07T14:47:17;2.62;;;1.30;;
44987;SDS011;35735;52.226;21.254;2023-05-07T14:52:18;5.70;;;3.10;;
44987;SDS011;35735;52.226;21.254;2023-05-07T14:57:18;2.45;;;1.50;;
44987;SDS011;35735;52.226;21.254;2023-05-07T15:02:19;5.65;;;2.20;;
44987;SDS011;35735;52.226;21.254;2023-05-07T15:07:20;2.92;;;2.00;;
44987;SDS011;35735;52.226;21.254;2023-05-07T15:12:20;2.97;;;1.98;;
44987;SDS011;35735;52.226;21.254;2023-05-07T15:17:21;2.55;;;2.00;;
44987;SDS011;35735;52.226;21.254;2023-05-07T15:22:21;4.62;;;2.53;;
44987;SDS011;35735;52.226;21.254;2023-05-07T15:27:22;7.25;;;2.83;;
44987;SDS011;35735;52.226;21.254;2023-05-07T15:32:23;4.95;;;2.00;;
44987;SDS011;35735;52.226;21.254;2023-05-07T15:37:23;4.85;;;1.90;;
44987;SDS011;35735;52.226;21.254;2023-05-07T15:42:24;3.03;;;1.90;;
44987;SDS011;35735;52.226;21.254;2023-05-07T15:47:24;2.97;;;2.20;;
44987;SDS011;35735;52.226;21.254;2023-05-07T15:52:25;4.87;;;2.72;;
44987;SDS011;35735;52.226;21.254;2023-05-07T15:57:25;3.40;;;2.00;;
44987;SDS011;35735;52.226;21.254;2023-05-07T16:02:26;2.12;;;1.77;;
44987;SDS011;35735;52.226;21.254;2023-05-07T16:07:27;2.87;;;1.98;;
44987;SDS011;35735;52.226;21.254;2023-05-07T16:12:27;3.80;;;2.08;;
44987;SDS011;35735;52.226;21.254;2023-05-07T16:17:28;3.58;;;2.05;;
44987;SDS011;35735;52.226;21.254;2023-05-07T16:22:28;4.90;;;2.05;;
44987;SDS011;35735;52.226;21.254;2023-05-07T16:27:29;4.50;;;2.00;;
44987;SDS011;35735;52.226;21.254;2023-05-07T16:32:30;5.37;;;2.87;;
44987;SDS011;35735;52.226;21.254;2023-05-07T16:37:31;5.30;;;2.05;;
44987;SDS011;35735;52.226;21.254;2023-05-07T16:42:33;4.43;;;2.33;;
44987;SDS011;35735;52.226;21.254;2023-05-07T16:47:34;4.82;;;2.25;;
44987;SDS011;35735;52.226;21.254;2023-05-07T16:52:35;3.42;;;2.37;;
44987;SDS011;35735;52.226;21.254;2023-05-07T16:57:35;4.68;;;3.28;;
44987;SDS011;35735;52.226;21.254;2023-05-07T17:02:36;3.37;;;2.35;;
44987;SDS011;35735;52.226;21.254;2023-05-07T17:07:36;2.45;;;2.15;;
44987;SDS011;35735;52.226;21.254;2023-05-07T17:12:37;4.07;;;2.50;;
44987;SDS011;35735;52.226;21.254;2023-05-07T17:17:38;3.92;;;2.65;;
44987;SDS011;35735;52.226;21.254;2023-05-07T17:22:39;4.30;;;2.80;;
44987;SDS011;35735;52.226;21.254;2023-05-07T17:27:40;6.87;;;3.67;;
44987;SDS011;35735;52.226;21.254;2023-05-07T17:32:40;6.78;;;4.15;;
44987;SDS011;35735;52.226;21.254;2023-05-07T17:37:41;8.15;;;4.45;;
44987;SDS011;35735;52.226;21.254;2023-05-07T17:42:42;5.95;;;4.20;;
44987;SDS011;35735;52.226;21.254;2023-05-07T17:47:42;6.12;;;3.72;;
44987;SDS011;35735;52.226;21.254;2023-05-07T17:52:43;5.80;;;4.35;;
44987;SDS011;35735;52.226;21.254;2023-05-07T17:57:43;6.70;;;3.92;;
44987;SDS011;35735;52.226;21.254;2023-05-07T18:02:44;8.98;;;4.10;;
44987;SDS011;35735;52.226;21.254;2023-05-07T18:07:44;6.40;;;5.00;;
44987;SDS011;35735;52.226;21.254;2023-05-07T18:12:45;6.30;;;4.97;;
44987;SDS011;35735;52.226;21.254;2023-05-07T18:17:46;9.30;;;5.93;;
44987;SDS011;35735;52.226;21.254;2023-05-07T18:22:46;12.18;;;8.43;;
44987;SDS011;35735;52.226;21.254;2023-05-07T18:27:47;14.70;;;8.45;;
44987;SDS011;35735;52.226;21.254;2023-05-07T18:32:47;14.23;;;10.38;;
44987;SDS011;35735;52.226;21.254;2023-05-07T18:37:48;20.20;;;13.00;;
44987;SDS011;35735;52.226;21.254;2023-05-07T18:42:49;23.45;;;14.48;;
44987;SDS011;35735;52.226;21.254;2023-05-07T18:47:49;12.95;;;10.55;;
44987;SDS011;35735;52.226;21.254;2023-05-07T18:52:50;12.30;;;9.43;;
44987;SDS011;35735;52.226;21.254;2023-05-07T18:57:51;10.75;;;8.07;;
44987;SDS011;35735;52.226;21.254;2023-05-07T19:02:51;10.48;;;8.35;;
44987;SDS011;35735;52.226;21.254;2023-05-07T19:07:52;8.32;;;6.87;;
44987;SDS011;35735;52.226;21.254;2023-05-07T19:12:52;11.48;;;7.15;;
44987;SDS011;35735;52.226;21.254;2023-05-07T19:17:53;11.90;;;6.93;;
44987;SDS011;35735;52.226;21.254;2023-05-07T19:22:53;9.82;;;6.70;;
44987;SDS011;35735;52.226;21.254;2023-05-07T19:27:54;8.40;;;6.10;;
44987;SDS011;35735;52.226;21.254;2023-05-07T19:32:54;10.75;;;6.47;;
44987;SDS011;35735;52.226;21.254;2023-05-07T19:37:55;8.77;;;6.05;;
44987;SDS011;35735;52.226;21.254;2023-05-07T19:42:56;8.55;;;5.80;;
44987;SDS011;35735;52.226;21.254;2023-05-07T19:47:56;8.95;;;7.28;;
44987;SDS011;35735;52.226;21.254;2023-05-07T19:52:57;9.65;;;7.15;;
44987;SDS011;35735;52.226;21.254;2023-05-07T19:57:57;10.18;;;7.35;;
44987;SDS011;35735;52.226;21.254;2023-05-07T20:02:58;14.35;;;9.63;;
44987;SDS011;35735;52.226;21.254;2023-05-07T20:07:58;15.15;;;11.05;;
44987;SDS011;35735;52.226;21.254;2023-05-07T20:12:59;18.85;;;12.13;;
44987;SDS011;35735;52.226;21.254;2023-05-07T20:17:59;24.40;;;14.90;;
44987;SDS011;35735;52.226;21.254;2023-05-07T20:23:00;28.60;;;17.30;;
44987;SDS011;35735;52.226;21.254;2023-05-07T20:28:01;25.95;;;18.65;;
44987;SDS011;35735;52.226;21.254;2023-05-07T20:33:01;29.30;;;19.02;;
44987;SDS011;35735;52.226;21.254;2023-05-07T20:38:02;29.80;;;20.23;;
44987;SDS011;35735;52.226;21.254;2023-05-07T20:43:03;26.62;;;16.48;;
44987;SDS011;35735;52.226;21.254;2023-05-07T20:48:05;22.70;;;15.07;;
44987;SDS011;35735;52.226;21.254;2023-05-07T20:53:05;18.55;;;12.73;;
44987;SDS011;35735;52.226;21.254;2023-05-07T20:58:06;18.45;;;11.82;;
44987;SDS011;35735;52.226;21.254;2023-05-07T21:03:06;16.00;;;11.45;;
44987;SDS011;35735;52.226;21.254;2023-05-07T21:08:07;15.32;;;10.60;;
44987;SDS011;35735;52.226;21.254;2023-05-07T21:13:07;15.38;;;10.95;;
44987;SDS011;35735;52.226;21.254;2023-05-07T21:18:09;19.20;;;11.45;;
44987;SDS011;35735;52.226;21.254;2023-05-07T21:23:10;16.52;;;11.23;;
44987;SDS011;35735;52.226;21.254;2023-05-07T21:28:10;20.45;;;13.25;;
44987;SDS011;35735;52.226;21.254;2023-05-07T21:33:11;20.80;;;12.93;;
44987;SDS011;35735;52.226;21.254;2023-05-07T21:38:12;18.17;;;12.37;;
44987;SDS011;35735;52.226;21.254;2023-05-07T21:43:12;19.35;;;12.30;;
44987;SDS011;35735;52.226;21.254;2023-05-07T21:48:13;21.80;;;14.38;;
44987;SDS011;35735;52.226;21.254;2023-05-07T21:53:14;23.08;;;14.73;;
44987;SDS011;35735;52.226;21.254;2023-05-07T21:58:14;22.08;;;15.05;;
44987;SDS011;35735;52.226;21.254;2023-05-07T22:03:15;26.33;;;15.57;;
44987;SDS011;35735;52.226;21.254;2023-05-07T22:08:15;22.08;;;14.80;;
44987;SDS011;35735;52.226;21.254;2023-05-07T22:13:16;21.02;;;15.23;;
44987;SDS011;35735;52.226;21.254;2023-05-07T22:18:17;22.40;;;15.95;;
44987;SDS011;35735;52.226;21.254;2023-05-07T22:23:17;22.58;;;16.58;;
44987;SDS011;35735;52.226;21.254;2023-05-07T22:28:18;28.23;;;17.75;;
44987;SDS011;35735;52.226;21.254;2023-05-07T22:33:18;26.27;;;17.90;;
44987;SDS011;35735;52.226;21.254;2023-05-07T22:38:19;30.60;;;20.02;;
44987;SDS011;35735;52.226;21.254;2023-05-07T22:43:19;35.20;;;20.75;;
44987;SDS011;35735;52.226;21.254;2023-05-07T22:48:20;39.20;;;23.27;;
44987;SDS011;35735;52.226;21.254;2023-05-07T22:53:20;48.40;;;26.87;;
44987;SDS011;35735;52.226;21.254;2023-05-07T22:58:21;54.60;;;29.98;;
44987;SDS011;35735;52.226;21.254;2023-05-07T23:03:21;51.33;;;30.08;;
44987;SDS011;35735;52.226;21.254;2023-05-07T23:08:22;50.20;;;29.15;;
44987;SDS011;35735;52.226;21.254;2023-05-07T23:13:23;50.38;;;28.55;;
44987;SDS011;35735;52.226;21.254;2023-05-07T23:18:23;47.05;;;26.55;;
44987;SDS011;35735;52.226;21.254;2023-05-07T23:23:24;47.80;;;28.60;;
44987;SDS011;35735;52.226;21.254;2023-05-07T23:28:24;46.90;;;28.12;;
44987;SDS011;35735;52.226;21.254;2023-05-07T23:33:25;47.10;;;27.37;;
44987;SDS011;35735;52.226;21.254;2023-05-07T23:38:25;46.10;;;27.05;;
44987;SDS011;35735;52.226;21.254;2023-05-07T23:43:26;42.83;;;24.75;;
44987;SDS011;35735;52.226;21.254;2023-05-07T23:48:26;41.72;;;24.00;;
44987;SDS011;35735;52.226;21.254;2023-05-07T23:53:27;40.65;;;24.00;;
44987;SDS011;35735;52.226;21.254;2023-05-07T23:58:28;37.33;;;21.02;;
